Thurman, IA (51654)

5:37 AM CST on February 06, 2016 (GMT -0600)
North Side of Town | | Change Station
CLOSE
Current Station
Personal Weather Station
Location: Thurman, IA
Elevation: 1007 ft
Nearby Weather Stations

Elev 1007 ft 40.82 °N, 95.75 °W | Updated 55 seconds ago

Overcast
Overcast
27.0 °F
Feels Like 27 °F
N
0.0
Wind Variable Wind from North
Gusts 0.0 mph

Today
High -- | Low -- °F
--% Chance of Precip.
Yesterday
High -- | Low -- °F
Precip. -- in
Pressure 30.25 in
Visibility 0.2 miles
Clouds Overcast 300 ft
Windchill 27 °F
Dew Point 25 °F
Humidity 93%
Rainfall 0.00 in
Snow Depth Not available.
7:28 AM 5:46 PM
Waning Crescent, 6% visible
METAR KPMV 061115Z AUTO 27004KT 1/4SM FZFG OVC003 M03/M03 A3025 RMK AO2 T10301034
Pressure 30.25 in
Visibility 0.2 miles
Clouds Overcast 300 ft
Windchill 27 °F
Dew Point 25 °F
Humidity 93%
Rainfall 0.00 in
Snow Depth Not available.
7:28 AM 5:46 PM
Waning Crescent, 6% visible
METAR KPMV 061115Z AUTO 27004KT 1/4SM FZFG OVC003 M03/M03 A3025 RMK AO2 T10301034

10-Day Weather Forecast

Almanac

Astronomy

Feb. 06, 2016 Rise Set
Actual Time
Civil Twilight
Nautical Twilight
Astronomical Twilight
Moon
Length of Visible Light
Length of Day
Tomorrow will be .
, % of the Moon is Illuminated

Today's Extremes

State Highs State Lows

Community

WunderPhotos

Upload Photos

1,890,933 photos uploaded!

WunderBlog® & News

Nearby

Air Quality

  Air Quality AQ Index Pollutant
Not available.

Snow Depth

Station Depth Elevation

Earthquake Activity

City Distance Mag. Time & Date
Minimum magnitude displayed is 2.5.

Coastal Water Temperatures

Place Temperature

Stations

Nearby Weather Stations

Station Location Temp. Windchill Dew Point Humidity Wind Precip. Elev Updated Type
                   

Watches & Warnings

There are currently no watches in effect.